aviador You're here:

KPWA Decoded Metar

OKLA CITY/WILEY in OK, USA
Report Time2018-07-23 14:53:00
UTC Time2018-07-23 15:42:10
Flight Rules vfr VFR
Wind060° at 11 kt
W.Decomp.*RWY 35: 4.6 kt HW 10.0 kt RCW
RWY 13: 2.8 kt HW 10.6 kt LCW
W.Rank060° ranks 22
Current wind is above 060° avg. (7.8)
Visibility9999 m
Phenomena:N/A
Clouds:N/A
Expected CloudBase > 3,600 ft AGL from Temp-Dew spread
CeilingNone
Temp27°C (ISA +15)
Dew Point18°C (58% RH)
Heat Index27.9°C
AAT25.8°C
QNH1017 hPa
Density Alt3,123 ft
Elevation1,302 ft
Report Wrong Elevation
Raw Report
KPWA 231453Z 06011KT 10SM CLR 27/18 A3004 RMK AO2 SLP154 T02670178
52011=

Extra information for KPWA:More info

Metar Taf Metar & Taf Last 4 Metars F.Rules Stats Wind Profile Meteogram Temp Stats Airport Information Weather charts Add Link Nearby VenuesMetar ALERT Operation Metar Decoded Social comments

AIRNAV info for KPWA